createdAt,value
2018-03-19T19:34:49.166Z,92.20
2018-03-19T19:37:16.768Z,92.00
2018-03-19T19:39:44.451Z,92.40
2018-03-19T19:42:12.066Z,92.30
2018-03-19T19:44:39.657Z,92.50
2018-03-19T19:47:07.262Z,92.40
2018-03-19T19:49:35.642Z,93.10
2018-03-19T19:52:04.000Z,92.90
2018-03-19T19:54:31.626Z,93.00
2018-03-19T19:56:59.227Z,93.40
2018-03-19T19:59:26.818Z,93.40
2018-03-19T20:01:54.418Z,93.50
2018-03-19T20:04:22.037Z,93.80
2018-03-19T20:06:49.630Z,93.80
2018-03-19T20:09:17.222Z,93.90
2018-03-19T20:11:44.846Z,93.80
2018-03-19T20:14:12.442Z,93.90
2018-03-19T20:16:40.034Z,94.00
2018-03-19T20:19:07.630Z,94.10
2018-03-19T20:21:35.221Z,94.10
2018-03-19T20:24:02.810Z,94.10
2018-03-19T20:26:30.434Z,94.10
2018-03-19T20:28:58.057Z,93.90
2018-03-19T20:31:25.653Z,93.50
2018-03-19T20:33:53.298Z,93.70
2018-03-19T20:36:20.888Z,93.50
2018-03-19T20:38:48.588Z,93.30
2018-03-19T20:41:16.247Z,93.80
2018-03-19T20:43:43.838Z,93.90
2018-03-19T20:46:11.433Z,94.20
2018-03-19T20:48:39.077Z,94.10
2018-03-19T20:51:06.687Z,94.30
2018-03-19T20:53:34.277Z,94.30
2018-03-19T20:56:01.878Z,94.30
2018-03-19T20:58:29.474Z,93.90
2018-03-19T21:00:57.069Z,94.20
2018-03-19T21:03:24.716Z,94.10
2018-03-19T21:05:52.378Z,94.70
2018-03-19T21:08:19.959Z,94.60
2018-03-19T21:10:47.571Z,94.70
2018-03-19T21:13:15.164Z,94.30
2018-03-19T21:15:42.762Z,94.50
2018-03-19T21:18:10.374Z,94.00
2018-03-19T21:20:37.962Z,93.40
2018-03-19T21:23:05.577Z,92.70
2018-03-19T21:25:33.174Z,93.40
2018-03-19T21:28:00.792Z,92.80
2018-03-19T21:30:28.385Z,93.90
2018-03-19T21:32:55.998Z,93.70
2018-03-19T21:35:23.588Z,94.30
2018-03-19T21:37:51.174Z,93.20
2018-03-19T21:40:18.782Z,93.10
2018-03-19T21:42:46.414Z,92.90
2018-03-19T21:45:14.778Z,93.70
2018-03-19T21:47:42.390Z,93.70
2018-03-19T21:50:09.978Z,93.00
2018-03-19T21:52:37.566Z,92.90
2018-03-19T21:55:05.195Z,93.20
2018-03-19T21:57:32.778Z,94.00
2018-03-19T22:00:00.382Z,94.10
2018-03-19T22:02:27.994Z,92.90
2018-03-19T22:04:55.589Z,93.70
2018-03-19T22:07:23.942Z,94.30
2018-03-19T22:09:51.545Z,94.30
2018-03-19T22:12:19.135Z,94.50
2018-03-19T22:14:46.733Z,94.30
2018-03-19T22:17:15.134Z,93.50
2018-03-19T22:19:42.736Z,93.50
2018-03-19T22:22:10.330Z,93.10
2018-03-19T22:24:37.936Z,93.30
2018-03-19T22:27:05.547Z,92.60
2018-03-19T22:29:33.173Z,93.10
2018-03-19T22:32:00.795Z,93.50
2018-03-19T22:34:28.420Z,93.00
2018-03-19T22:36:56.123Z,92.90
2018-03-19T22:39:23.758Z,92.70
2018-03-19T22:41:51.378Z,92.10
2018-03-19T22:44:18.978Z,92.80
2018-03-19T22:46:47.378Z,92.90
2018-03-19T22:49:14.982Z,92.90
2018-03-19T22:51:42.602Z,95.10
2018-03-19T22:54:10.230Z,95.10
2018-03-19T22:56:37.835Z,93.00
2018-03-19T22:59:06.207Z,94.30
2018-03-19T23:01:33.824Z,94.30
2018-03-19T23:04:01.538Z,92.20
2018-03-19T23:06:29.126Z,92.00
2018-03-19T23:08:56.737Z,92.70
2018-03-19T23:11:25.101Z,92.60
2018-03-19T23:13:53.658Z,92.50
2018-03-19T23:16:21.272Z,92.50
2018-03-19T23:18:48.882Z,92.40
2018-03-19T23:21:16.493Z,91.70
2018-03-19T23:23:44.110Z,91.30
2018-03-19T23:26:11.717Z,90.80
2018-03-19T23:28:39.310Z,90.30
2018-03-19T23:31:06.921Z,89.60
2018-03-19T23:33:34.538Z,88.40
2018-03-19T23:36:02.144Z,87.70
2018-03-19T23:38:29.781Z,86.90
2018-03-19T23:40:57.367Z,86.30
2018-03-19T23:43:24.963Z,86.50
2018-03-19T23:45:52.579Z,86.90
2018-03-19T23:48:20.942Z,86.40
2018-03-19T23:50:49.394Z,87.00
2018-03-19T23:53:17.006Z,86.80
2018-03-19T23:55:44.602Z,86.00
2018-03-19T23:58:12.223Z,86.20
